Aeroporto :
LOGIN :

Iscrizione | Disclaimer

   EN    FR    IT 

 










Sommario :    VFR   VFR Marginale   IFR   IFR Intensivo   IFR Molto Intensivo
Visibilità : 
Base nubi : 
>= 8 km
>= 3000ft
5 / 8 km
1000 / 3000 ft
1500m / 5 km
500 / 1000 ft
800 / 1500m
200 / 500 ft
< 800m
< 200 ft
Simboli :   Temporali  Nebbia  Neve Forte  Precipitazioni Forti  Vento > 20 kt
SIGMETs :   Varie  Temporali  Ghiacco  Turbolenza  Onda orograficha  Ceneri Vulcaniche







- Altitudine del aeroporto : 2731 ft
- Codice IATA : LPY
- Carte del aeroporto


LFHP - Le Puy Loudes

ULTIMO METAR :
  • 201230Z AUTO 29010KT 250V320 9999 FEW032 SCT052 OVC080 13/07 Q1012

METARs OBSOLETI :
  • 201200Z AUTO 29009KT 230V330 9999 FEW028 SCT056 OVC080 13/06 Q1012
  • 201130Z AUTO 31010KT 280V340 9999 FEW031 BKN043 BKN050 12/06 Q1012
  • 201100Z AUTO 31009KT 9999 FEW027 BKN036 OVC048 12/06 Q1012
  • 201030Z AUTO 30011KT 270V330 9999 FEW024 OVC041 12/06 Q1011
  • 201000Z AUTO 33009KT 9999 FEW024 BKN032 OVC038 11/07 Q1011

Previsioni scadute.
Nessun NOTAM noto per questo aeroporto.



MetMap, La meteo Aeronautica in un colpo d'occhio ! - Copyright ORBIFLY Dicembre 2007 - Disclaimer

ORBIFLY MET'MAP TEAM :

Programmazione e sviluppo : Alexandra Zaïnal
Concezione e sviluppo : Baudouin d'Aumeries
Co-Programmazione e sviluppo : Marc-Olivier Méhu
Supporto tecnico e logistico : Manuel Goepfert
Aiuto per la traduzione : Arnaldo La Scala

Contatto : metmap@orbifly.com




FONTI E CREDITI :

   NOAA